Time;durP1;ratioP1;P1;durP2;ratioP2;P2;SDS_P1;SDS_P2;PMS_P1;PMS_P2;Temp;Humidity;BMP_temperature;BMP_pressure;BME280_temperature;BME280_humidity;BME280_pressure;Samples;Min_cycle;Max_cycle;Signal;HPM_P1;HPM_P2
2023/05/01 00:02:07;;;;;;;5.90;5.33;;;16.90;45.50;;;;;;5022222;28;21281;-84
2023/05/01 00:04:34;;;;;;;5.80;5.30;;;17.00;45.00;;;;;;5022940;28;20954;-84
2023/05/01 00:07:02;;;;;;;5.77;4.30;;;17.00;44.70;;;;;;5033672;28;20569;-84
2023/05/01 00:09:28;;;;;;;5.00;4.60;;;17.10;44.40;;;;;;5029209;28;20475;-84
2023/05/01 00:11:55;;;;;;;5.73;4.80;;;17.10;44.00;;;;;;5019492;28;20456;-85
2023/05/01 00:14:22;;;;;;;4.80;4.40;;;17.00;43.20;;;;;;5040644;28;20467;-83
2023/05/01 00:16:51;;;;;;;5.37;4.90;;;17.00;44.20;;;;;;5031302;28;20468;-84
2023/05/01 00:19:17;;;;;;;6.43;5.10;;;17.00;44.40;;;;;;5010014;28;20475;-83
2023/05/01 00:21:46;;;;;;;6.73;5.17;;;17.00;44.60;;;;;;5038365;28;20456;-85
2023/05/01 00:24:13;;;;;;;6.83;5.60;;;16.90;44.20;;;;;;5011882;28;20524;-85
2023/05/01 00:26:40;;;;;;;6.50;4.60;;;16.80;45.30;;;;;;5037723;28;20464;-85
2023/05/01 00:29:08;;;;;;;6.10;5.53;;;16.80;44.70;;;;;;5005325;28;20449;-86
2023/05/01 00:31:35;;;;;;;5.90;5.40;;;16.80;45.00;;;;;;5034603;28;20541;-85
2023/05/01 00:34:04;;;;;;;6.97;5.20;;;16.80;44.50;;;;;;5029559;28;20559;-83
2023/05/01 00:36:32;;;;;;;5.90;5.40;;;16.70;45.20;;;;;;5021290;28;20522;-83
2023/05/01 00:38:59;;;;;;;5.47;4.97;;;16.70;45.10;;;;;;5039504;28;20861;-86
2023/05/01 00:41:26;;;;;;;5.40;4.90;;;16.70;45.20;;;;;;5021834;28;20447;-84
2023/05/01 00:43:53;;;;;;;12.93;5.40;;;16.60;44.50;;;;;;5028365;28;20451;-84
2023/05/01 00:46:21;;;;;;;5.90;5.30;;;16.30;44.40;;;;;;5019928;28;21011;-82
2023/05/01 00:48:48;;;;;;;6.03;4.70;;;16.10;44.40;;;;;;5002656;28;20442;-85
2023/05/01 00:51:16;;;;;;;7.93;5.30;;;16.00;44.30;;;;;;5026431;28;20449;-83
2023/05/01 00:53:44;;;;;;;7.30;4.57;;;16.00;45.70;;;;;;5025316;28;20472;-86
2023/05/01 00:56:11;;;;;;;5.23;4.73;;;16.10;45.90;;;;;;5012460;28;20472;-83
2023/05/01 00:58:38;;;;;;;5.00;4.60;;;16.00;45.60;;;;;;5016995;28;20539;-83
2023/05/01 01:01:07;;;;;;;5.70;4.43;;;16.00;46.60;;;;;;5001673;28;20448;-86
2023/05/01 01:03:34;;;;;;;5.73;4.63;;;16.10;46.60;;;;;;5028122;28;20445;-84
2023/05/01 01:06:08;;;;;;;6.60;5.30;;;16.20;45.70;;;;;;5039186;28;20842;-84
2023/05/01 01:08:42;;;;;;;7.60;4.80;;;16.20;46.10;;;;;;5017618;28;20452;-86
2023/05/01 01:11:18;;;;;;;6.10;4.90;;;16.10;45.20;;;;;;5023759;28;20921;-83
2023/05/01 01:13:51;;;;;;;6.20;5.57;;;16.00;45.50;;;;;;5006004;28;20459;-84
2023/05/01 01:16:23;;;;;;;5.20;4.50;;;16.00;45.60;;;;;;5013860;28;20484;-84
2023/05/01 01:18:56;;;;;;;8.80;5.70;;;15.80;45.80;;;;;;5005822;28;20556;-84
2023/05/01 01:21:31;;;;;;;5.30;4.80;;;15.40;46.40;;;;;;5027906;28;21035;-85
2023/05/01 01:24:33;;;;;;;5.90;5.20;;;15.30;46.60;;;;;;5001843;28;21144;-84
2023/05/01 01:27:39;;;;;;;4.50;4.10;;;15.40;47.00;;;;;;5056700;28;20475;-84
2023/05/01 01:30:26;;;;;;;5.10;4.60;;;15.50;46.80;;;;;;5036913;28;20443;-84
2023/05/01 01:33:11;;;;;;;5.40;4.57;;;15.40;46.30;;;;;;5034628;28;20450;-84
2023/05/01 01:35:46;;;;;;;5.27;4.77;;;15.40;46.30;;;;;;5039536;28;20468;-82
2023/05/01 01:38:17;;;;;;;5.33;4.63;;;15.20;46.50;;;;;;5027499;28;20463;-84
2023/05/01 01:40:51;;;;;;;8.13;4.60;;;15.10;47.00;;;;;;5022467;28;20508;-84
2023/05/01 01:43:20;;;;;;;5.07;4.50;;;15.30;46.70;;;;;;5037175;28;20441;-84
2023/05/01 01:45:52;;;;;;;6.47;5.03;;;15.30;47.00;;;;;;5021576;28;20570;-83
2023/05/01 01:48:24;;;;;;;8.47;5.07;;;15.30;46.10;;;;;;5024984;28;20449;-84
2023/05/01 01:50:54;;;;;;;6.03;5.53;;;15.30;46.00;;;;;;5028681;28;20448;-84
2023/05/01 01:53:23;;;;;;;5.37;4.87;;;15.40;46.70;;;;;;5012155;28;20438;-84
2023/05/01 01:55:52;;;;;;;6.13;4.80;;;15.30;46.10;;;;;;5013506;28;20512;-84
2023/05/01 01:58:24;;;;;;;5.10;4.60;;;15.20;46.40;;;;;;5024836;28;20987;-85
2023/05/01 02:00:53;;;;;;;5.10;4.53;;;15.20;46.30;;;;;;5022854;28;20519;-83
2023/05/01 02:03:22;;;;;;;4.70;4.20;;;15.20;46.30;;;;;;5011815;28;20449;-84
2023/05/01 02:05:52;;;;;;;8.90;4.83;;;15.20;46.50;;;;;;5010910;28;20465;-84
2023/05/01 02:08:21;;;;;;;5.30;4.50;;;15.10;46.60;;;;;;5008588;28;20462;-83
2023/05/01 02:10:50;;;;;;;6.37;4.80;;;15.20;47.90;;;;;;5037128;28;20818;-85
2023/05/01 02:13:18;;;;;;;5.77;4.83;;;15.30;47.50;;;;;;5038980;28;20475;-85
2023/05/01 02:15:46;;;;;;;6.03;5.50;;;15.30;47.30;;;;;;5022538;28;20484;-85
2023/05/01 02:18:15;;;;;;;7.37;4.90;;;15.40;47.20;;;;;;5017506;28;20449;-85
2023/05/01 02:20:43;;;;;;;7.30;5.13;;;15.50;47.10;;;;;;5035171;28;20488;-85
2023/05/01 02:23:13;;;;;;;5.40;4.70;;;15.50;46.30;;;;;;5027840;28;20449;-86
2023/05/01 02:25:42;;;;;;;6.33;4.70;;;15.40;46.40;;;;;;5028052;28;20485;-83
2023/05/01 02:28:12;;;;;;;9.40;5.20;;;15.40;46.50;;;;;;5029060;28;20462;-85
2023/05/01 02:30:41;;;;;;;7.87;4.80;;;15.20;46.80;;;;;;5018333;28;20519;-85
2023/05/01 02:33:08;;;;;;;8.00;4.93;;;15.30;47.30;;;;;;5021879;28;20449;-84
2023/05/01 02:35:39;;;;;;;6.00;5.00;;;15.30;47.10;;;;;;5029099;28;20491;-84
2023/05/01 02:38:07;;;;;;;5.43;4.70;;;15.30;46.20;;;;;;5020628;28;20467;-85
2023/05/01 02:40:38;;;;;;;6.17;4.57;;;15.20;46.40;;;;;;5034206;28;20465;-83
2023/05/01 02:43:09;;;;;;;6.30;5.00;;;15.10;47.20;;;;;;5010666;28;20445;-85
2023/05/01 02:45:38;;;;;;;6.77;5.40;;;15.10;47.80;;;;;;5020616;28;20467;-85
2023/05/01 02:48:07;;;;;;;6.87;5.47;;;15.10;48.20;;;;;;5022484;28;20454;-85
2023/05/01 02:50:36;;;;;;;4.90;4.50;;;15.00;48.80;;;;;;5032761;28;20519;-83
2023/05/01 02:53:03;;;;;;;6.87;5.63;;;15.10;48.70;;;;;;5021794;28;20446;-85
2023/05/01 02:55:44;;;;;;;8.30;4.80;;;14.80;48.40;;;;;;5023263;28;20471;-81
2023/05/01 02:58:15;;;;;;;8.00;5.70;;;14.80;49.30;;;;;;5032633;28;20463;-84
2023/05/01 03:00:43;;;;;;;5.97;5.37;;;14.70;48.30;;;;;;5034121;28;21102;-83
2023/05/01 03:03:10;;;;;;;6.23;5.30;;;14.20;49.10;;;;;;5019617;28;20529;-83
2023/05/01 03:05:38;;;;;;;6.70;5.60;;;14.20;49.50;;;;;;5031341;28;20551;-83
2023/05/01 03:08:06;;;;;;;6.60;5.37;;;13.90;49.60;;;;;;5022753;28;20453;-84
2023/05/01 03:10:33;;;;;;;6.00;5.40;;;13.60;50.50;;;;;;5007227;28;20540;-85
2023/05/01 03:13:02;;;;;;;6.93;4.50;;;13.40;50.60;;;;;;5018446;28;20547;-84
2023/05/01 03:15:29;;;;;;;6.30;5.03;;;13.20;51.20;;;;;;5037100;28;20569;-84
2023/05/01 03:17:56;;;;;;;7.30;5.33;;;13.40;51.50;;;;;;5008384;28;20504;-85
2023/05/01 03:20:23;;;;;;;10.47;5.33;;;13.60;51.40;;;;;;5012009;28;20882;-85
2023/05/01 03:22:50;;;;;;;5.90;5.10;;;14.00;51.50;;;;;;5021395;28;20452;-83
2023/05/01 03:25:18;;;;;;;7.13;5.80;;;14.30;50.80;;;;;;5021726;28;20513;-85
2023/05/01 03:27:44;;;;;;;8.40;5.87;;;14.50;50.00;;;;;;5025768;28;20479;-84
2023/05/01 03:30:13;;;;;;;7.80;5.83;;;14.70;49.40;;;;;;5036063;28;20449;-84
2023/05/01 03:32:42;;;;;;;10.40;5.17;;;14.70;49.10;;;;;;5019950;28;20610;-84
2023/05/01 03:35:17;;;;;;;8.47;6.10;;;14.80;49.90;;;;;;5018277;28;21005;-84
2023/05/01 03:37:44;;;;;;;7.57;5.50;;;14.80;48.80;;;;;;5038076;28;20449;-84
2023/05/01 03:40:16;;;;;;;6.30;5.70;;;14.80;49.50;;;;;;5004703;28;20478;-84
2023/05/01 03:43:15;;;;;;;5.30;4.83;;;14.90;49.40;;;;;;5035433;28;20463;-84
2023/05/01 03:45:44;;;;;;;6.70;5.60;;;14.90;49.10;;;;;;5029322;28;20473;-84
2023/05/01 03:48:12;;;;;;;6.13;5.57;;;15.00;49.00;;;;;;5009549;28;20453;-84
2023/05/01 03:50:41;;;;;;;12.93;6.43;;;15.00;48.70;;;;;;5001890;28;20445;-85
2023/05/01 03:53:08;;;;;;;8.97;5.57;;;15.00;49.00;;;;;;5019743;28;20841;-84
2023/05/01 03:55:35;;;;;;;8.40;5.93;;;15.00;49.00;;;;;;5017649;28;20475;-84
2023/05/01 03:58:02;;;;;;;9.20;6.30;;;15.00;49.20;;;;;;5013929;28;20949;-84
2023/05/01 04:00:30;;;;;;;8.90;6.63;;;14.90;49.20;;;;;;5025246;28;20472;-83
2023/05/01 04:02:58;;;;;;;7.70;5.50;;;14.90;48.90;;;;;;5025039;28;20467;-84
2023/05/01 04:05:25;;;;;;;7.63;6.50;;;14.90;48.80;;;;;;5029462;28;20473;-85
2023/05/01 04:07:57;;;;;;;9.40;6.90;;;14.70;48.50;;;;;;5022526;28;20510;-82
2023/05/01 04:10:25;;;;;;;8.33;6.13;;;14.40;49.00;;;;;;5020626;28;20453;-83
2023/05/01 04:13:00;;;;;;;7.03;5.80;;;14.50;49.50;;;;;;5014681;28;20440;-85
2023/05/01 04:15:27;;;;;;;12.57;8.03;;;14.70;49.90;;;;;;5024590;28;20477;-83
2023/05/01 04:17:55;;;;;;;7.70;6.40;;;14.60;50.10;;;;;;5021727;28;20503;-85
2023/05/01 04:20:24;;;;;;;9.63;6.10;;;14.70;50.00;;;;;;5043945;28;20464;-83
2023/05/01 04:22:51;;;;;;;12.20;7.40;;;14.70;49.70;;;;;;5035466;28;20449;-86
2023/05/01 04:25:18;;;;;;;9.43;6.80;;;14.80;49.30;;;;;;5021740;28;20515;-83
2023/05/01 04:27:47;;;;;;;7.47;5.97;;;14.70;48.70;;;;;;5016213;28;20450;-86
2023/05/01 04:30:15;;;;;;;8.23;6.53;;;14.70;49.30;;;;;;5015578;28;20430;-85
2023/05/01 04:32:43;;;;;;;16.03;7.03;;;14.70;50.30;;;;;;5018723;28;20441;-85
2023/05/01 04:35:11;;;;;;;8.10;7.23;;;14.70;49.40;;;;;;5041163;28;20448;-82
2023/05/01 04:37:44;;;;;;;9.70;6.37;;;14.80;49.40;;;;;;5019046;28;20499;-83
2023/05/01 04:40:12;;;;;;;10.60;6.50;;;14.90;49.10;;;;;;5014267;28;20465;-84
2023/05/01 04:42:41;;;;;;;9.27;6.67;;;14.90;49.20;;;;;;5028253;28;20456;-85
2023/05/01 04:45:12;;;;;;;10.00;6.47;;;14.90;49.20;;;;;;5007583;28;20457;-83
2023/05/01 04:47:38;;;;;;;7.97;5.90;;;14.90;49.90;;;;;;5022368;28;20448;-84
2023/05/01 04:50:07;;;;;;;8.77;6.37;;;15.00;49.70;;;;;;5039994;28;20451;-85
2023/05/01 04:52:34;;;;;;;13.80;6.70;;;14.90;50.20;;;;;;5016832;28;21012;-85
2023/05/01 04:55:05;;;;;;;7.87;5.73;;;14.90;50.40;;;;;;5023774;28;20457;-85
2023/05/01 04:57:36;;;;;;;6.57;5.83;;;15.00;50.90;;;;;;5028957;28;20449;-85
2023/05/01 05:00:07;;;;;;;11.83;6.03;;;15.00;50.70;;;;;;5008763;28;20515;-85
2023/05/01 05:02:39;;;;;;;9.70;6.93;;;15.00;50.90;;;;;;5032994;28;20457;-83
2023/05/01 05:05:07;;;;;;;7.27;5.83;;;15.00;51.60;;;;;;5046113;28;20456;-85
2023/05/01 05:07:34;;;;;;;7.20;6.00;;;15.00;51.40;;;;;;5014411;28;20445;-83
2023/05/01 05:10:41;;;;;;;6.60;5.83;;;15.00;51.40;;;;;;5018185;28;20557;-85
2023/05/01 05:13:23;;;;;;;10.40;6.00;;;15.00;51.70;;;;;;5023604;28;20465;-84
2023/05/01 05:15:58;;;;;;;7.70;6.27;;;15.10;52.20;;;;;;5007660;28;20571;-83
2023/05/01 05:18:26;;;;;;;9.93;6.57;;;15.10;52.00;;;;;;5021766;28;20957;-85
2023/05/01 05:20:54;;;;;;;8.47;6.17;;;15.20;52.00;;;;;;5030576;28;21255;-85
2023/05/01 05:23:21;;;;;;;7.73;6.50;;;15.20;51.80;;;;;;5026008;28;20446;-84
2023/05/01 05:25:50;;;;;;;7.73;5.60;;;15.20;52.10;;;;;;5010368;28;20476;-85
2023/05/01 05:28:17;;;;;;;9.10;6.63;;;15.20;52.30;;;;;;5011951;28;20887;-85
2023/05/01 05:30:45;;;;;;;11.80;7.90;;;15.30;52.00;;;;;;5037675;28;21223;-84
2023/05/01 05:33:15;;;;;;;8.13;7.23;;;15.30;51.00;;;;;;5023960;28;20447;-85
2023/05/01 05:35:42;;;;;;;8.13;6.47;;;15.10;48.70;;;;;;5027948;28;20466;-84
2023/05/01 05:38:09;;;;;;;8.97;7.00;;;15.10;50.90;;;;;;5023099;28;20553;-86
2023/05/01 05:40:39;;;;;;;10.10;7.33;;;15.20;50.70;;;;;;5030167;28;20480;-85
2023/05/01 05:43:08;;;;;;;8.20;6.57;;;15.40;49.90;;;;;;5029413;28;20449;-85
2023/05/01 05:45:35;;;;;;;10.53;7.30;;;15.40;48.80;;;;;;5022984;28;20484;-85
2023/05/01 05:48:02;;;;;;;10.67;6.83;;;15.50;47.70;;;;;;5039247;28;21229;-85
2023/05/01 05:50:32;;;;;;;9.40;6.83;;;15.40;46.60;;;;;;5040215;28;20533;-85
2023/05/01 05:52:59;;;;;;;11.30;7.47;;;15.40;46.60;;;;;;5028575;28;20873;-83
2023/05/01 05:55:27;;;;;;;16.57;6.97;;;15.60;48.30;;;;;;5023291;28;20477;-85
2023/05/01 05:58:02;;;;;;;10.70;7.20;;;15.60;47.20;;;;;;5011054;28;20449;-85
2023/05/01 06:00:31;;;;;;;9.53;6.63;;;15.80;47.50;;;;;;5005468;28;20488;-82
2023/05/01 06:03:02;;;;;;;9.67;7.67;;;15.90;47.50;;;;;;5021543;28;20452;-85
2023/05/01 06:05:31;;;;;;;8.80;6.80;;;16.00;46.50;;;;;;5041969;28;21040;-83
2023/05/01 06:07:58;;;;;;;14.83;8.03;;;15.90;45.60;;;;;;5033133;28;20981;-85
2023/05/01 06:10:25;;;;;;;11.03;6.23;;;15.90;46.30;;;;;;5036119;28;20945;-84
2023/05/01 06:12:52;;;;;;;9.93;6.70;;;15.90;46.90;;;;;;5029202;28;20493;-84
2023/05/01 06:15:20;;;;;;;8.87;6.73;;;16.10;47.60;;;;;;5023573;28;20563;-85
2023/05/01 06:17:54;;;;;;;11.97;7.30;;;16.20;47.40;;;;;;5011673;28;20446;-83
2023/05/01 06:20:21;;;;;;;11.87;6.93;;;16.20;46.10;;;;;;5009277;28;20566;-84
2023/05/01 06:22:50;;;;;;;9.93;7.07;;;16.30;46.20;;;;;;5012727;28;20495;-82
2023/05/01 06:25:22;;;;;;;14.17;7.30;;;16.30;45.80;;;;;;5020609;28;21001;-84
2023/05/01 06:27:50;;;;;;;11.53;7.47;;;16.30;46.10;;;;;;5024712;28;20475;-85
2023/05/01 06:30:20;;;;;;;11.80;6.67;;;16.50;45.90;;;;;;5025051;28;20482;-85
2023/05/01 06:32:47;;;;;;;11.13;7.80;;;16.50;44.80;;;;;;5028238;28;20500;-83
2023/05/01 06:35:16;;;;;;;13.53;8.80;;;16.50;45.00;;;;;;5021874;28;20507;-84
2023/05/01 06:37:43;;;;;;;9.80;6.87;;;16.40;45.20;;;;;;5025390;28;20536;-84
2023/05/01 06:40:12;;;;;;;10.40;7.43;;;16.10;45.20;;;;;;5006241;28;21033;-84
2023/05/01 06:42:39;;;;;;;9.07;6.57;;;16.20;45.90;;;;;;5004228;28;20437;-85
2023/05/01 06:45:08;;;;;;;10.90;7.50;;;16.20;44.90;;;;;;5022496;28;20452;-85
2023/05/01 06:47:35;;;;;;;13.60;7.70;;;16.40;45.20;;;;;;5018801;28;20437;-84
2023/05/01 06:50:02;;;;;;;11.00;7.47;;;16.50;44.90;;;;;;5027259;28;20476;-85
2023/05/01 06:52:32;;;;;;;13.60;6.80;;;16.30;44.60;;;;;;5021871;28;20996;-85
2023/05/01 06:54:59;;;;;;;9.07;7.00;;;16.40;45.60;;;;;;5038753;28;21054;-84
2023/05/01 06:57:26;;;;;;;10.17;7.77;;;16.40;45.20;;;;;;5010802;28;20456;-83
2023/05/01 06:59:53;;;;;;;13.13;7.70;;;16.60;44.50;;;;;;5035669;28;20479;-84
2023/05/01 07:02:20;;;;;;;11.83;8.90;;;16.50;44.10;;;;;;5004213;28;20476;-84
2023/05/01 07:04:47;;;;;;;10.47;7.63;;;16.50;45.00;;;;;;5020915;28;20438;-82
2023/05/01 07:07:14;;;;;;;32.53;20.23;;;16.40;45.10;;;;;;5028577;28;20465;-84
2023/05/01 07:09:42;;;;;;;12.60;9.90;;;16.60;45.10;;;;;;5050119;28;20544;-84
2023/05/01 07:12:09;;;;;;;14.27;11.37;;;16.50;44.50;;;;;;4998086;28;20474;-82
2023/05/01 07:14:36;;;;;;;10.97;8.10;;;16.80;45.00;;;;;;5014910;28;20894;-85
2023/05/01 07:17:04;;;;;;;12.00;8.20;;;17.00;44.80;;;;;;5019442;28;21019;-83
2023/05/01 07:19:31;;;;;;;12.00;7.63;;;17.10;44.00;;;;;;5020530;28;20537;-84
2023/05/01 07:21:58;;;;;;;10.17;7.67;;;17.10;43.60;;;;;;5036790;28;20564;-83
2023/05/01 07:24:25;;;;;;;10.73;8.03;;;17.30;43.80;;;;;;5019608;28;20489;-88
2023/05/01 07:26:55;;;;;;;17.10;8.90;;;17.20;43.00;;;;;;5008819;28;20925;-86
2023/05/01 07:29:22;;;;;;;22.73;7.40;;;17.30;43.60;;;;;;5014168;28;20541;-86
2023/05/01 07:31:49;;;;;;;9.30;7.40;;;17.30;43.20;;;;;;5037352;28;20529;-83
2023/05/01 07:34:17;;;;;;;13.80;9.10;;;17.30;43.30;;;;;;5018388;28;20452;-84
2023/05/01 07:36:44;;;;;;;12.43;7.90;;;17.30;43.60;;;;;;5033781;28;20480;-84
2023/05/01 07:39:11;;;;;;;15.03;7.33;;;17.30;43.90;;;;;;5003314;28;20448;-85
2023/05/01 07:41:37;;;;;;;12.43;7.63;;;17.20;43.50;;;;;;5023685;28;20539;-84
2023/05/01 07:44:06;;;;;;;18.90;11.80;;;17.30;43.30;;;;;;5023323;28;21076;-84
2023/05/01 07:46:33;;;;;;;14.37;9.57;;;17.30;43.40;;;;;;5019806;28;20461;-83
2023/05/01 07:49:00;;;;;;;27.93;15.30;;;17.50;42.70;;;;;;5035699;28;20492;-83
2023/05/01 07:51:27;;;;;;;25.53;14.27;;;17.30;41.80;;;;;;5033767;28;20467;-82
2023/05/01 07:53:54;;;;;;;19.77;11.60;;;17.40;42.60;;;;;;5014798;28;20446;-85
2023/05/01 07:56:22;;;;;;;10.00;7.43;;;17.50;42.10;;;;;;5013381;28;20907;-86
2023/05/01 07:58:49;;;;;;;10.93;8.93;;;17.40;42.10;;;;;;5047741;28;20449;-84
2023/05/01 08:01:17;;;;;;;10.50;8.07;;;17.30;42.60;;;;;;5046793;28;20468;-82
2023/05/01 08:03:44;;;;;;;10.03;7.97;;;17.60;42.90;;;;;;4999842;28;20457;-82
2023/05/01 08:06:11;;;;;;;20.07;13.23;;;17.70;42.40;;;;;;5028247;28;20496;-83
2023/05/01 08:08:38;;;;;;;11.83;7.03;;;17.60;42.00;;;;;;5030610;28;20437;-82
2023/05/01 08:11:05;;;;;;;12.27;8.03;;;17.60;41.60;;;;;;5014415;28;20451;-85
2023/05/01 08:13:32;;;;;;;16.10;11.10;;;17.50;41.60;;;;;;5005812;28;21169;-84
2023/05/01 08:16:03;;;;;;;13.20;9.23;;;17.60;42.00;;;;;;5031467;28;20462;-83
2023/05/01 08:18:31;;;;;;;19.33;11.97;;;17.70;42.50;;;;;;5028803;28;20490;-82
2023/05/01 08:20:58;;;;;;;16.43;10.73;;;17.80;42.50;;;;;;5017498;28;20534;-83
2023/05/01 08:23:25;;;;;;;14.20;10.27;;;18.10;42.50;;;;;;5021645;28;20560;-84
2023/05/01 08:25:52;;;;;;;12.40;7.97;;;18.10;41.30;;;;;;5017753;28;20464;-84
2023/05/01 08:28:20;;;;;;;14.90;9.03;;;18.10;41.30;;;;;;5014310;28;20442;-84
2023/05/01 08:30:49;;;;;;;12.10;9.00;;;18.00;41.40;;;;;;5046750;28;20445;-83
2023/05/01 08:33:16;;;;;;;10.90;8.73;;;17.70;41.60;;;;;;5049146;28;20491;-84
2023/05/01 08:35:44;;;;;;;9.30;7.93;;;17.80;42.30;;;;;;5034393;28;21264;-83
2023/05/01 08:38:11;;;;;;;11.70;6.97;;;17.90;41.90;;;;;;5007911;28;20995;-83
2023/05/01 08:40:38;;;;;;;20.23;11.80;;;17.90;42.10;;;;;;5007773;28;20468;-82
2023/05/01 08:43:06;;;;;;;8.90;7.30;;;17.70;41.90;;;;;;5017604;28;21249;-83
2023/05/01 08:45:36;;;;;;;10.03;8.03;;;17.80;42.20;;;;;;5017613;28;20473;-84
2023/05/01 08:48:05;;;;;;;7.83;7.03;;;17.90;41.30;;;;;;5020751;28;20451;-85
2023/05/01 08:50:34;;;;;;;16.80;8.00;;;17.90;40.90;;;;;;5018477;28;20524;-85
2023/05/01 08:53:03;;;;;;;13.83;7.70;;;17.90;42.00;;;;;;5026665;28;20864;-85
2023/05/01 08:55:32;;;;;;;8.70;7.03;;;17.80;41.10;;;;;;5002173;28;20686;-86
2023/05/01 08:57:59;;;;;;;15.57;12.50;;;17.70;42.10;;;;;;5055239;28;20457;-85
2023/05/01 09:00:27;;;;;;;32.43;22.73;;;17.50;42.40;;;;;;5026250;28;20472;-85
2023/05/01 09:02:55;;;;;;;20.57;14.77;;;17.70;42.20;;;;;;5019127;28;20473;-85
2023/05/01 09:05:22;;;;;;;12.63;10.30;;;17.80;42.20;;;;;;5027521;28;20453;-83
2023/05/01 09:07:49;;;;;;;10.30;8.07;;;18.10;42.50;;;;;;5011508;28;20817;-85
2023/05/01 09:10:18;;;;;;;10.20;7.60;;;18.20;41.80;;;;;;5026304;28;20894;-83
2023/05/01 09:12:50;;;;;;;9.60;7.17;;;18.10;41.50;;;;;;5010601;28;20511;-84
2023/05/01 09:15:18;;;;;;;8.80;6.93;;;18.10;41.70;;;;;;5023420;28;20437;-84
2023/05/01 09:17:45;;;;;;;11.80;7.10;;;18.40;41.50;;;;;;5015586;28;20447;-83
2023/05/01 09:20:12;;;;;;;13.67;7.77;;;18.60;40.60;;;;;;5051913;28;20516;-83
2023/05/01 09:22:40;;;;;;;8.77;7.47;;;18.20;39.90;;;;;;5034166;28;20554;-83
2023/05/01 09:25:09;;;;;;;12.50;7.30;;;18.20;41.00;;;;;;5043880;28;20469;-85
2023/05/01 09:27:37;;;;;;;9.70;7.80;;;18.20;42.00;;;;;;5017945;28;20464;-83
2023/05/01 09:30:06;;;;;;;12.10;7.77;;;18.20;41.10;;;;;;5008618;28;20460;-84
2023/05/01 09:32:34;;;;;;;13.07;8.00;;;18.50;41.70;;;;;;5025375;28;20499;-83
2023/05/01 09:35:12;;;;;;;12.33;8.47;;;18.70;40.70;;;;;;5031628;28;20454;-82
2023/05/01 09:37:40;;;;;;;16.80;9.67;;;18.70;41.40;;;;;;5017153;28;20451;-84
2023/05/01 09:40:09;;;;;;;11.73;7.27;;;18.60;40.50;;;;;;5017166;28;21318;-84
2023/05/01 09:42:38;;;;;;;7.80;6.40;;;18.40;41.70;;;;;;5009483;28;20552;-85
2023/05/01 09:45:12;;;;;;;14.07;8.80;;;18.50;41.30;;;;;;5034173;28;21002;-83
2023/05/01 09:47:40;;;;;;;14.47;10.93;;;18.80;41.70;;;;;;5039325;28;20459;-85
2023/05/01 09:50:08;;;;;;;13.43;8.20;;;18.90;40.50;;;;;;5035027;28;20437;-85
2023/05/01 09:52:36;;;;;;;8.70;7.80;;;18.80;41.50;;;;;;5036989;28;20441;-85
2023/05/01 09:55:13;;;;;;;8.10;7.20;;;19.00;42.30;;;;;;5019460;28;20445;-85
2023/05/01 09:57:42;;;;;;;11.87;9.20;;;19.10;41.20;;;;;;5018929;28;20441;-83
2023/05/01 10:00:11;;;;;;;12.63;7.87;;;18.80;40.60;;;;;;5009381;28;21154;-84
2023/05/01 10:02:38;;;;;;;13.20;7.67;;;18.70;40.10;;;;;;5019739;28;20499;-84
2023/05/01 10:05:07;;;;;;;9.57;7.67;;;18.60;41.80;;;;;;5033687;28;20457;-85
2023/05/01 10:07:34;;;;;;;9.07;7.30;;;18.80;41.90;;;;;;5000955;28;20492;-85
2023/05/01 10:10:16;;;;;;;9.93;7.50;;;19.00;41.80;;;;;;5022435;28;20503;-83
2023/05/01 10:12:45;;;;;;;10.50;8.13;;;19.00;41.40;;;;;;5038003;28;20478;-84
2023/05/01 10:15:12;;;;;;;9.97;7.20;;;18.50;41.50;;;;;;5018163;28;20450;-84
2023/05/01 10:17:41;;;;;;;11.37;7.90;;;18.70;41.80;;;;;;5017909;28;20538;-83
2023/05/01 10:20:10;;;;;;;9.43;7.00;;;18.60;43.30;;;;;;5026460;28;20449;-84
2023/05/01 10:22:37;;;;;;;9.67;7.30;;;18.60;41.30;;;;;;5017173;28;20838;-84
2023/05/01 10:25:07;;;;;;;10.53;6.90;;;18.70;41.00;;;;;;5000795;28;20871;-85
2023/05/01 10:27:35;;;;;;;7.37;6.63;;;18.40;41.30;;;;;;5042769;28;20449;-83
2023/05/01 10:30:05;;;;;;;11.17;8.00;;;18.70;41.90;;;;;;5042934;28;20456;-83
2023/05/01 10:32:32;;;;;;;8.50;7.23;;;18.70;41.00;;;;;;5031759;28;20455;-83
2023/05/01 10:35:02;;;;;;;10.73;7.20;;;18.70;41.50;;;;;;5027376;28;20457;-83
2023/05/01 10:37:35;;;;;;;9.43;7.17;;;18.90;41.70;;;;;;5024435;28;20442;-83
2023/05/01 10:40:36;;;;;;;10.50;8.00;;;18.70;41.20;;;;;;5024491;28;20547;-83
2023/05/01 10:43:17;;;;;;;12.17;7.60;;;18.60;41.70;;;;;;5038911;28;20496;-84
2023/05/01 10:45:46;;;;;;;10.40;7.83;;;18.80;41.60;;;;;;5021411;28;20468;-83
2023/05/01 10:48:35;;;;;;;9.70;8.03;;;18.60;42.10;;;;;;5014582;28;20495;-83
2023/05/01 10:51:09;;;;;;;14.47;7.83;;;18.30;42.40;;;;;;5009814;28;20461;-83
2023/05/01 10:53:36;;;;;;;10.77;7.87;;;18.60;42.80;;;;;;5054064;28;20539;-82
2023/05/01 10:56:04;;;;;;;14.10;10.73;;;18.70;42.20;;;;;;5024154;28;20553;-84
2023/05/01 10:58:57;;;;;;;17.57;15.53;;;18.90;42.40;;;;;;5030303;28;20453;-82
2023/05/01 11:01:30;;;;;;;11.40;7.87;;;18.90;42.40;;;;;;5011104;28;20738;-84
2023/05/01 11:03:58;;;;;;;8.93;7.63;;;19.00;43.20;;;;;;5025066;28;20441;-83
2023/05/01 11:06:25;;;;;;;11.43;7.83;;;19.20;43.10;;;;;;5009920;28;21273;-84
2023/05/01 11:08:54;;;;;;;10.87;7.40;;;19.30;42.40;;;;;;5034901;28;21069;-84
2023/05/01 11:11:49;;;;;;;9.37;7.13;;;19.30;42.60;;;;;;5035410;28;20485;-84
2023/05/01 11:14:16;;;;;;;8.07;7.27;;;19.10;42.30;;;;;;5009808;28;20493;-83
2023/05/01 11:16:47;;;;;;;10.20;6.80;;;19.10;43.30;;;;;;5028632;28;20572;-83
2023/05/01 11:19:47;;;;;;;8.63;7.23;;;19.20;42.40;;;;;;5028610;28;20542;-83
2023/05/01 11:22:15;;;;;;;9.77;8.00;;;19.30;41.90;;;;;;5057159;28;20494;-82
2023/05/01 11:24:42;;;;;;;7.40;6.67;;;19.10;42.30;;;;;;5056247;28;20893;-84
2023/05/01 11:27:14;;;;;;;9.60;7.27;;;18.90;42.30;;;;;;5014929;28;20483;-81
2023/05/01 11:29:47;;;;;;;8.13;7.20;;;18.80;43.00;;;;;;5025611;28;20457;-83
2023/05/01 11:32:25;;;;;;;7.87;6.90;;;18.70;42.70;;;;;;5036768;28;20430;-83
2023/05/01 11:34:52;;;;;;;8.90;6.97;;;18.70;43.50;;;;;;5042987;28;20591;-83
2023/05/01 11:37:19;;;;;;;12.33;8.83;;;18.80;41.80;;;;;;5020696;28;20476;-83
2023/05/01 11:39:51;;;;;;;7.20;6.47;;;18.50;42.20;;;;;;5009657;28;21193;-83
2023/05/01 11:42:22;;;;;;;8.77;7.10;;;18.50;43.20;;;;;;5018042;28;20468;-83
2023/05/01 11:45:06;;;;;;;8.27;6.13;;;18.70;43.20;;;;;;5026125;28;20470;-83
2023/05/01 11:47:34;;;;;;;8.53;7.63;;;18.90;43.60;;;;;;5035269;28;20457;-83
2023/05/01 11:50:01;;;;;;;9.47;7.13;;;18.80;42.80;;;;;;5028873;28;20557;-84
2023/05/01 11:52:28;;;;;;;7.40;6.60;;;18.80;42.10;;;;;;5042447;28;20450;-83
2023/05/01 11:54:56;;;;;;;9.90;7.37;;;18.70;42.90;;;;;;5015475;28;20451;-82
2023/05/01 11:57:23;;;;;;;12.57;7.27;;;18.60;43.10;;;;;;5037009;28;20477;-83
2023/05/01 11:59:50;;;;;;;8.20;7.07;;;18.40;42.30;;;;;;5035358;28;20888;-83
2023/05/01 12:02:19;;;;;;;9.50;6.67;;;18.60;43.90;;;;;;5017450;28;20504;-82
2023/05/01 12:04:47;;;;;;;12.27;8.23;;;18.70;42.80;;;;;;5021025;28;20461;-83
2023/05/01 12:07:22;;;;;;;9.03;7.53;;;18.70;43.50;;;;;;4999302;28;20496;-83
2023/05/01 12:09:49;;;;;;;12.10;7.60;;;18.60;42.90;;;;;;5037060;28;20459;-82
2023/05/01 12:12:17;;;;;;;12.73;7.20;;;18.60;43.80;;;;;;5052458;28;20438;-83
2023/05/01 12:14:44;;;;;;;7.17;6.47;;;18.50;43.80;;;;;;5019185;28;20456;-84
2023/05/01 12:17:11;;;;;;;8.57;6.70;;;18.80;43.20;;;;;;5038499;28;20480;-83
2023/05/01 12:19:50;;;;;;;9.57;7.17;;;19.10;43.40;;;;;;5023102;28;20456;-84
2023/05/01 12:22:18;;;;;;;10.63;7.80;;;19.20;42.30;;;;;;5032519;28;20798;-84
2023/05/01 12:24:52;;;;;;;8.07;7.17;;;19.40;42.00;;;;;;5058914;28;20544;-84
2023/05/01 12:27:20;;;;;;;8.50;7.17;;;19.00;41.40;;;;;;5025918;28;21170;-83
2023/05/01 12:29:47;;;;;;;8.87;7.50;;;19.20;42.00;;;;;;5013194;28;20445;-83
2023/05/01 12:32:15;;;;;;;7.60;6.80;;;19.40;41.70;;;;;;5012503;28;20453;-84
2023/05/01 12:34:43;;;;;;;7.40;6.63;;;19.40;41.20;;;;;;5027227;28;20516;-85
2023/05/01 12:37:11;;;;;;;7.93;7.13;;;19.50;41.90;;;;;;5023862;28;20473;-84
2023/05/01 12:39:41;;;;;;;11.70;6.97;;;19.60;41.90;;;;;;5020592;28;20457;-83
2023/05/01 12:42:15;;;;;;;7.97;7.17;;;19.70;41.60;;;;;;5021256;28;20456;-84
2023/05/01 12:44:43;;;;;;;11.60;7.10;;;19.60;41.50;;;;;;5053007;28;20452;-83
2023/05/01 12:47:12;;;;;;;8.33;7.00;;;19.70;41.30;;;;;;5019935;28;20518;-83
2023/05/01 12:49:39;;;;;;;10.67;7.07;;;19.90;41.30;;;;;;5017159;28;20457;-83
2023/05/01 12:52:07;;;;;;;8.70;6.93;;;19.70;41.20;;;;;;5036823;28;20452;-83
2023/05/01 12:54:37;;;;;;;8.90;6.57;;;19.60;41.60;;;;;;5036109;28;21162;-83
2023/05/01 12:57:10;;;;;;;9.20;7.20;;;19.70;41.60;;;;;;5019412;28;20577;-83